Terminal Aerodrome Forecast
Issued by NWS

Home | Current Version | Previous Version | Text Only | Print | Product List | Glossary Off
Versions: 1 2 3 4 5 6 7 8 9 10 11 12 13 14 15 16 17 18 19 20 21

972
FTUS42 KMHX 171138
TAFISO
TAF
KISO 171138Z 1712/1812 VRB04KT 1/4SM FG BKN003
     FM171300 VRB04KT 2SM BR BKN007
     FM171400 16005KT P6SM SCT080
     FM171800 17005KT P6SM VCSH BKN035
     FM180000 18005KT P6SM SCT035 BKN150
     FM180900 17005KT 5SM BR BKN060
      AMD LTD TO CLD VIS AND WIND=

USA.gov is the U.S. government's official web portal to all federal, state and local government web resources and services.